sensor_id;sensor_type;location;lat;lon;timestamp;P1;durP1;ratioP1;P2;durP2;ratioP2
9256;SDS011;4665;51.368;6.782;2022-12-24T00:02:11;13.97;;;4.00;;
9256;SDS011;4665;51.368;6.782;2022-12-24T00:04:37;13.73;;;3.93;;
9256;SDS011;4665;51.368;6.782;2022-12-24T00:07:02;11.90;;;3.70;;
9256;SDS011;4665;51.368;6.782;2022-12-24T00:09:28;13.27;;;4.30;;
9256;SDS011;4665;51.368;6.782;2022-12-24T00:11:54;14.67;;;3.73;;
9256;SDS011;4665;51.368;6.782;2022-12-24T00:14:19;16.00;;;5.10;;
9256;SDS011;4665;51.368;6.782;2022-12-24T00:16:45;17.67;;;4.90;;
9256;SDS011;4665;51.368;6.782;2022-12-24T00:19:10;16.80;;;4.63;;
9256;SDS011;4665;51.368;6.782;2022-12-24T00:21:36;21.40;;;5.00;;
9256;SDS011;4665;51.368;6.782;2022-12-24T00:24:01;14.77;;;4.40;;
9256;SDS011;4665;51.368;6.782;2022-12-24T00:26:30;15.93;;;3.93;;
9256;SDS011;4665;51.368;6.782;2022-12-24T00:28:56;20.20;;;4.87;;
9256;SDS011;4665;51.368;6.782;2022-12-24T00:31:22;20.47;;;4.10;;
9256;SDS011;4665;51.368;6.782;2022-12-24T00:33:47;14.93;;;3.83;;
9256;SDS011;4665;51.368;6.782;2022-12-24T00:36:13;16.03;;;4.47;;
9256;SDS011;4665;51.368;6.782;2022-12-24T00:38:39;20.63;;;4.20;;
9256;SDS011;4665;51.368;6.782;2022-12-24T00:41:05;15.03;;;3.77;;
9256;SDS011;4665;51.368;6.782;2022-12-24T00:43:48;18.00;;;4.33;;
9256;SDS011;4665;51.368;6.782;2022-12-24T00:46:17;18.93;;;4.93;;
9256;SDS011;4665;51.368;6.782;2022-12-24T00:48:43;16.00;;;4.13;;
9256;SDS011;4665;51.368;6.782;2022-12-24T00:51:09;17.90;;;5.07;;
9256;SDS011;4665;51.368;6.782;2022-12-24T00:53:34;19.23;;;4.73;;
9256;SDS011;4665;51.368;6.782;2022-12-24T00:55:59;17.03;;;4.67;;
9256;SDS011;4665;51.368;6.782;2022-12-24T00:58:25;17.07;;;4.30;;
9256;SDS011;4665;51.368;6.782;2022-12-24T01:00:50;22.17;;;4.97;;
9256;SDS011;4665;51.368;6.782;2022-12-24T01:03:16;12.33;;;4.50;;
9256;SDS011;4665;51.368;6.782;2022-12-24T01:05:41;20.47;;;4.70;;
9256;SDS011;4665;51.368;6.782;2022-12-24T01:08:07;17.90;;;4.40;;
9256;SDS011;4665;51.368;6.782;2022-12-24T01:10:32;22.13;;;4.70;;
9256;SDS011;4665;51.368;6.782;2022-12-24T01:13:00;18.67;;;4.67;;
9256;SDS011;4665;51.368;6.782;2022-12-24T01:15:26;20.07;;;4.90;;
9256;SDS011;4665;51.368;6.782;2022-12-24T01:17:52;20.93;;;5.07;;
9256;SDS011;4665;51.368;6.782;2022-12-24T01:20:18;15.37;;;4.03;;
9256;SDS011;4665;51.368;6.782;2022-12-24T01:22:44;19.70;;;4.87;;
9256;SDS011;4665;51.368;6.782;2022-12-24T01:25:09;17.30;;;4.80;;
9256;SDS011;4665;51.368;6.782;2022-12-24T01:27:35;21.23;;;4.83;;
9256;SDS011;4665;51.368;6.782;2022-12-24T01:30:00;22.00;;;5.47;;
9256;SDS011;4665;51.368;6.782;2022-12-24T01:32:26;19.70;;;4.80;;
9256;SDS011;4665;51.368;6.782;2022-12-24T01:34:51;16.53;;;5.30;;
9256;SDS011;4665;51.368;6.782;2022-12-24T01:37:17;18.70;;;4.67;;
9256;SDS011;4665;51.368;6.782;2022-12-24T01:39:42;14.07;;;4.23;;
9256;SDS011;4665;51.368;6.782;2022-12-24T01:42:18;18.53;;;5.00;;
9256;SDS011;4665;51.368;6.782;2022-12-24T01:45:29;22.73;;;5.63;;
9256;SDS011;4665;51.368;6.782;2022-12-24T01:48:01;13.17;;;4.27;;
9256;SDS011;4665;51.368;6.782;2022-12-24T01:50:27;19.27;;;4.97;;
9256;SDS011;4665;51.368;6.782;2022-12-24T01:52:53;17.03;;;5.10;;
9256;SDS011;4665;51.368;6.782;2022-12-24T01:55:18;20.57;;;4.97;;
9256;SDS011;4665;51.368;6.782;2022-12-24T01:57:45;20.30;;;5.53;;
9256;SDS011;4665;51.368;6.782;2022-12-24T02:00:15;23.43;;;5.13;;
9256;SDS011;4665;51.368;6.782;2022-12-24T02:02:42;23.00;;;5.33;;
9256;SDS011;4665;51.368;6.782;2022-12-24T02:05:15;16.33;;;4.60;;
9256;SDS011;4665;51.368;6.782;2022-12-24T02:07:46;23.73;;;5.77;;
9256;SDS011;4665;51.368;6.782;2022-12-24T02:10:13;19.97;;;5.17;;
9256;SDS011;4665;51.368;6.782;2022-12-24T02:12:40;19.23;;;5.37;;
9256;SDS011;4665;51.368;6.782;2022-12-24T02:15:08;20.93;;;5.60;;
9256;SDS011;4665;51.368;6.782;2022-12-24T02:31:38;17.37;;;4.53;;
9256;SDS011;4665;51.368;6.782;2022-12-24T02:36:50;20.60;;;5.23;;
9256;SDS011;4665;51.368;6.782;2022-12-24T02:39:27;21.23;;;4.53;;
9256;SDS011;4665;51.368;6.782;2022-12-24T02:42:06;13.90;;;4.60;;
9256;SDS011;4665;51.368;6.782;2022-12-24T02:44:43;21.47;;;5.57;;
9256;SDS011;4665;51.368;6.782;2022-12-24T02:47:13;16.37;;;4.53;;
9256;SDS011;4665;51.368;6.782;2022-12-24T02:49:42;15.03;;;4.40;;
9256;SDS011;4665;51.368;6.782;2022-12-24T02:54:54;16.30;;;3.80;;
9256;SDS011;4665;51.368;6.782;2022-12-24T02:57:42;29.53;;;4.77;;
9256;SDS011;4665;51.368;6.782;2022-12-24T03:00:26;15.90;;;4.13;;
9256;SDS011;4665;51.368;6.782;2022-12-24T03:03:08;13.37;;;3.77;;
9256;SDS011;4665;51.368;6.782;2022-12-24T03:05:47;22.27;;;5.07;;
9256;SDS011;4665;51.368;6.782;2022-12-24T03:10:53;20.90;;;5.13;;
9256;SDS011;4665;51.368;6.782;2022-12-24T03:13:22;15.43;;;4.63;;
9256;SDS011;4665;51.368;6.782;2022-12-24T03:15:49;14.13;;;4.17;;
9256;SDS011;4665;51.368;6.782;2022-12-24T03:18:18;17.03;;;4.37;;
9256;SDS011;4665;51.368;6.782;2022-12-24T03:21:05;19.67;;;4.60;;
9256;SDS011;4665;51.368;6.782;2022-12-24T03:23:36;13.97;;;4.20;;
9256;SDS011;4665;51.368;6.782;2022-12-24T03:26:04;12.87;;;4.30;;
9256;SDS011;4665;51.368;6.782;2022-12-24T03:28:32;16.60;;;4.03;;
9256;SDS011;4665;51.368;6.782;2022-12-24T03:31:00;16.87;;;4.47;;
9256;SDS011;4665;51.368;6.782;2022-12-24T03:33:27;24.93;;;4.77;;
9256;SDS011;4665;51.368;6.782;2022-12-24T03:35:53;17.27;;;4.37;;
9256;SDS011;4665;51.368;6.782;2022-12-24T03:38:18;19.60;;;4.97;;
9256;SDS011;4665;51.368;6.782;2022-12-24T03:40:43;20.00;;;5.10;;
9256;SDS011;4665;51.368;6.782;2022-12-24T03:43:09;19.40;;;4.57;;
9256;SDS011;4665;51.368;6.782;2022-12-24T03:45:34;16.37;;;3.87;;
9256;SDS011;4665;51.368;6.782;2022-12-24T03:48:00;15.40;;;4.60;;
9256;SDS011;4665;51.368;6.782;2022-12-24T03:50:25;24.97;;;4.73;;
9256;SDS011;4665;51.368;6.782;2022-12-24T03:52:51;19.43;;;4.63;;
9256;SDS011;4665;51.368;6.782;2022-12-24T03:55:16;17.97;;;4.63;;
9256;SDS011;4665;51.368;6.782;2022-12-24T03:57:41;17.03;;;3.80;;
9256;SDS011;4665;51.368;6.782;2022-12-24T04:00:07;11.67;;;3.90;;
9256;SDS011;4665;51.368;6.782;2022-12-24T04:02:33;17.53;;;3.80;;
9256;SDS011;4665;51.368;6.782;2022-12-24T04:04:58;12.53;;;3.67;;
9256;SDS011;4665;51.368;6.782;2022-12-24T04:07:24;14.47;;;3.70;;
9256;SDS011;4665;51.368;6.782;2022-12-24T04:09:49;16.50;;;3.73;;
9256;SDS011;4665;51.368;6.782;2022-12-24T04:12:15;15.70;;;3.83;;
9256;SDS011;4665;51.368;6.782;2022-12-24T04:14:40;14.93;;;3.70;;
9256;SDS011;4665;51.368;6.782;2022-12-24T04:17:06;9.83;;;3.20;;
9256;SDS011;4665;51.368;6.782;2022-12-24T04:19:31;8.27;;;2.97;;
9256;SDS011;4665;51.368;6.782;2022-12-24T04:21:57;11.00;;;3.43;;
9256;SDS011;4665;51.368;6.782;2022-12-24T04:24:22;8.17;;;2.83;;
9256;SDS011;4665;51.368;6.782;2022-12-24T04:26:48;12.87;;;3.40;;
9256;SDS011;4665;51.368;6.782;2022-12-24T04:29:13;11.87;;;3.43;;
9256;SDS011;4665;51.368;6.782;2022-12-24T04:31:38;14.30;;;3.37;;
9256;SDS011;4665;51.368;6.782;2022-12-24T04:34:04;9.97;;;3.47;;
9256;SDS011;4665;51.368;6.782;2022-12-24T04:36:29;14.77;;;4.20;;
9256;SDS011;4665;51.368;6.782;2022-12-24T04:38:55;14.10;;;3.53;;
9256;SDS011;4665;51.368;6.782;2022-12-24T04:41:21;8.23;;;3.17;;
9256;SDS011;4665;51.368;6.782;2022-12-24T04:43:48;13.37;;;3.53;;
9256;SDS011;4665;51.368;6.782;2022-12-24T04:46:18;12.17;;;3.47;;
9256;SDS011;4665;51.368;6.782;2022-12-24T04:48:46;9.73;;;3.47;;
9256;SDS011;4665;51.368;6.782;2022-12-24T04:51:13;9.53;;;3.57;;
9256;SDS011;4665;51.368;6.782;2022-12-24T04:53:40;11.87;;;2.97;;
9256;SDS011;4665;51.368;6.782;2022-12-24T04:56:17;12.87;;;4.00;;
9256;SDS011;4665;51.368;6.782;2022-12-24T04:58:45;11.83;;;3.73;;
9256;SDS011;4665;51.368;6.782;2022-12-24T05:01:12;10.17;;;3.07;;
9256;SDS011;4665;51.368;6.782;2022-12-24T05:03:41;13.23;;;3.10;;
9256;SDS011;4665;51.368;6.782;2022-12-24T05:06:09;14.73;;;4.13;;
9256;SDS011;4665;51.368;6.782;2022-12-24T05:08:37;14.43;;;3.47;;
9256;SDS011;4665;51.368;6.782;2022-12-24T05:11:02;11.33;;;3.50;;
9256;SDS011;4665;51.368;6.782;2022-12-24T05:13:28;13.43;;;3.37;;
9256;SDS011;4665;51.368;6.782;2022-12-24T05:15:54;12.13;;;3.00;;
9256;SDS011;4665;51.368;6.782;2022-12-24T05:18:20;8.03;;;3.00;;
9256;SDS011;4665;51.368;6.782;2022-12-24T05:20:46;15.97;;;4.00;;
9256;SDS011;4665;51.368;6.782;2022-12-24T05:23:16;10.77;;;3.10;;
9256;SDS011;4665;51.368;6.782;2022-12-24T05:26:04;9.80;;;3.37;;
9256;SDS011;4665;51.368;6.782;2022-12-24T05:28:52;14.23;;;4.40;;
9256;SDS011;4665;51.368;6.782;2022-12-24T05:31:20;19.20;;;3.90;;
9256;SDS011;4665;51.368;6.782;2022-12-24T05:33:47;9.37;;;3.80;;
9256;SDS011;4665;51.368;6.782;2022-12-24T05:36:13;12.83;;;3.80;;
9256;SDS011;4665;51.368;6.782;2022-12-24T05:38:38;13.17;;;3.30;;
9256;SDS011;4665;51.368;6.782;2022-12-24T05:41:04;12.47;;;3.50;;
9256;SDS011;4665;51.368;6.782;2022-12-24T05:43:30;14.37;;;3.77;;
9256;SDS011;4665;51.368;6.782;2022-12-24T05:45:57;14.53;;;4.53;;
9256;SDS011;4665;51.368;6.782;2022-12-24T05:48:23;15.67;;;4.03;;
9256;SDS011;4665;51.368;6.782;2022-12-24T05:50:49;12.20;;;3.70;;
9256;SDS011;4665;51.368;6.782;2022-12-24T05:53:14;15.73;;;3.53;;
9256;SDS011;4665;51.368;6.782;2022-12-24T05:55:40;17.90;;;4.43;;
9256;SDS011;4665;51.368;6.782;2022-12-24T05:58:05;11.40;;;3.37;;
9256;SDS011;4665;51.368;6.782;2022-12-24T06:00:31;15.63;;;4.33;;
9256;SDS011;4665;51.368;6.782;2022-12-24T06:02:56;12.70;;;3.37;;
9256;SDS011;4665;51.368;6.782;2022-12-24T06:05:22;13.83;;;3.60;;
9256;SDS011;4665;51.368;6.782;2022-12-24T06:07:48;13.50;;;3.60;;
9256;SDS011;4665;51.368;6.782;2022-12-24T06:10:14;15.43;;;4.17;;
9256;SDS011;4665;51.368;6.782;2022-12-24T06:12:39;15.17;;;4.00;;
9256;SDS011;4665;51.368;6.782;2022-12-24T06:15:05;12.70;;;3.50;;
9256;SDS011;4665;51.368;6.782;2022-12-24T06:17:31;9.47;;;3.80;;
9256;SDS011;4665;51.368;6.782;2022-12-24T06:19:56;10.73;;;3.70;;
9256;SDS011;4665;51.368;6.782;2022-12-24T06:22:22;11.00;;;3.60;;
9256;SDS011;4665;51.368;6.782;2022-12-24T06:24:47;14.50;;;3.57;;
9256;SDS011;4665;51.368;6.782;2022-12-24T06:27:12;10.93;;;3.80;;
9256;SDS011;4665;51.368;6.782;2022-12-24T06:29:38;14.07;;;4.00;;
9256;SDS011;4665;51.368;6.782;2022-12-24T06:32:03;13.63;;;3.90;;
9256;SDS011;4665;51.368;6.782;2022-12-24T06:34:29;13.30;;;3.90;;
9256;SDS011;4665;51.368;6.782;2022-12-24T06:36:54;11.10;;;3.90;;
9256;SDS011;4665;51.368;6.782;2022-12-24T06:39:20;13.63;;;4.03;;
9256;SDS011;4665;51.368;6.782;2022-12-24T06:41:45;17.47;;;3.90;;
9256;SDS011;4665;51.368;6.782;2022-12-24T06:44:11;15.13;;;3.77;;
9256;SDS011;4665;51.368;6.782;2022-12-24T06:46:36;13.67;;;3.90;;
9256;SDS011;4665;51.368;6.782;2022-12-24T06:49:02;15.20;;;3.80;;
9256;SDS011;4665;51.368;6.782;2022-12-24T06:51:27;16.47;;;4.83;;
9256;SDS011;4665;51.368;6.782;2022-12-24T06:53:53;14.87;;;4.10;;
9256;SDS011;4665;51.368;6.782;2022-12-24T06:56:19;15.73;;;4.40;;
9256;SDS011;4665;51.368;6.782;2022-12-24T06:58:45;14.80;;;4.13;;
9256;SDS011;4665;51.368;6.782;2022-12-24T07:01:12;17.17;;;5.00;;
9256;SDS011;4665;51.368;6.782;2022-12-24T07:03:39;15.00;;;4.37;;
9256;SDS011;4665;51.368;6.782;2022-12-24T07:06:05;14.60;;;4.40;;
9256;SDS011;4665;51.368;6.782;2022-12-24T07:08:31;17.67;;;5.17;;
9256;SDS011;4665;51.368;6.782;2022-12-24T07:11:00;16.27;;;4.90;;
9256;SDS011;4665;51.368;6.782;2022-12-24T07:13:25;17.00;;;4.87;;
9256;SDS011;4665;51.368;6.782;2022-12-24T07:15:58;16.37;;;5.00;;
9256;SDS011;4665;51.368;6.782;2022-12-24T07:18:27;18.77;;;5.00;;
9256;SDS011;4665;51.368;6.782;2022-12-24T07:20:53;16.33;;;4.53;;
9256;SDS011;4665;51.368;6.782;2022-12-24T07:23:18;16.77;;;4.60;;
9256;SDS011;4665;51.368;6.782;2022-12-24T07:25:44;19.00;;;4.70;;
9256;SDS011;4665;51.368;6.782;2022-12-24T07:28:10;16.63;;;5.17;;
9256;SDS011;4665;51.368;6.782;2022-12-24T07:30:35;14.27;;;4.97;;
9256;SDS011;4665;51.368;6.782;2022-12-24T07:33:01;20.03;;;5.47;;
9256;SDS011;4665;51.368;6.782;2022-12-24T07:35:27;18.83;;;5.03;;
9256;SDS011;4665;51.368;6.782;2022-12-24T07:37:52;19.20;;;4.90;;
9256;SDS011;4665;51.368;6.782;2022-12-24T07:40:18;19.07;;;4.80;;
9256;SDS011;4665;51.368;6.782;2022-12-24T07:42:43;17.17;;;5.20;;
9256;SDS011;4665;51.368;6.782;2022-12-24T07:45:09;20.73;;;5.03;;
9256;SDS011;4665;51.368;6.782;2022-12-24T07:47:34;14.33;;;4.23;;
9256;SDS011;4665;51.368;6.782;2022-12-24T07:50:01;11.50;;;3.77;;
9256;SDS011;4665;51.368;6.782;2022-12-24T07:52:29;14.77;;;4.10;;
9256;SDS011;4665;51.368;6.782;2022-12-24T07:54:54;19.80;;;4.43;;
9256;SDS011;4665;51.368;6.782;2022-12-24T07:57:20;22.70;;;5.00;;
9256;SDS011;4665;51.368;6.782;2022-12-24T07:59:45;21.40;;;4.53;;
9256;SDS011;4665;51.368;6.782;2022-12-24T08:02:11;18.73;;;4.07;;
9256;SDS011;4665;51.368;6.782;2022-12-24T08:04:36;14.70;;;4.10;;
9256;SDS011;4665;51.368;6.782;2022-12-24T08:07:03;16.43;;;4.97;;
9256;SDS011;4665;51.368;6.782;2022-12-24T08:09:30;16.80;;;4.67;;
9256;SDS011;4665;51.368;6.782;2022-12-24T08:11:59;13.50;;;4.60;;
9256;SDS011;4665;51.368;6.782;2022-12-24T08:14:26;11.03;;;4.07;;
9256;SDS011;4665;51.368;6.782;2022-12-24T08:16:52;12.83;;;4.20;;
9256;SDS011;4665;51.368;6.782;2022-12-24T08:19:18;17.43;;;4.80;;
9256;SDS011;4665;51.368;6.782;2022-12-24T08:21:43;18.07;;;4.67;;
9256;SDS011;4665;51.368;6.782;2022-12-24T08:24:09;23.13;;;4.90;;
9256;SDS011;4665;51.368;6.782;2022-12-24T08:26:35;14.37;;;3.73;;
9256;SDS011;4665;51.368;6.782;2022-12-24T08:29:01;15.60;;;4.47;;
9256;SDS011;4665;51.368;6.782;2022-12-24T08:31:29;19.27;;;5.07;;
9256;SDS011;4665;51.368;6.782;2022-12-24T08:33:54;13.70;;;3.80;;
9256;SDS011;4665;51.368;6.782;2022-12-24T08:36:20;12.77;;;3.70;;
9256;SDS011;4665;51.368;6.782;2022-12-24T08:38:45;12.70;;;4.50;;
9256;SDS011;4665;51.368;6.782;2022-12-24T08:41:10;12.27;;;4.17;;
9256;SDS011;4665;51.368;6.782;2022-12-24T08:43:36;16.30;;;4.57;;
9256;SDS011;4665;51.368;6.782;2022-12-24T08:46:02;15.03;;;4.60;;
9256;SDS011;4665;51.368;6.782;2022-12-24T08:48:30;20.37;;;4.77;;
9256;SDS011;4665;51.368;6.782;2022-12-24T08:50:56;18.07;;;4.40;;
9256;SDS011;4665;51.368;6.782;2022-12-24T08:53:21;14.67;;;4.63;;
9256;SDS011;4665;51.368;6.782;2022-12-24T08:55:47;21.43;;;5.23;;
9256;SDS011;4665;51.368;6.782;2022-12-24T08:58:13;17.47;;;5.10;;
9256;SDS011;4665;51.368;6.782;2022-12-24T09:00:38;17.07;;;3.83;;
9256;SDS011;4665;51.368;6.782;2022-12-24T09:03:04;14.30;;;4.47;;
9256;SDS011;4665;51.368;6.782;2022-12-24T09:05:29;18.37;;;5.43;;
9256;SDS011;4665;51.368;6.782;2022-12-24T09:07:55;12.10;;;4.20;;
9256;SDS011;4665;51.368;6.782;2022-12-24T09:10:21;16.87;;;4.87;;
9256;SDS011;4665;51.368;6.782;2022-12-24T09:12:47;19.30;;;4.80;;
9256;SDS011;4665;51.368;6.782;2022-12-24T09:15:13;14.97;;;4.43;;
9256;SDS011;4665;51.368;6.782;2022-12-24T09:17:38;18.83;;;5.03;;
9256;SDS011;4665;51.368;6.782;2022-12-24T09:20:04;27.47;;;5.20;;
9256;SDS011;4665;51.368;6.782;2022-12-24T09:22:31;17.67;;;4.23;;
9256;SDS011;4665;51.368;6.782;2022-12-24T09:24:59;19.83;;;4.77;;
9256;SDS011;4665;51.368;6.782;2022-12-24T09:27:25;17.23;;;5.00;;
9256;SDS011;4665;51.368;6.782;2022-12-24T09:29:51;17.53;;;5.07;;
9256;SDS011;4665;51.368;6.782;2022-12-24T09:32:16;20.23;;;5.67;;
9256;SDS011;4665;51.368;6.782;2022-12-24T09:34:41;18.83;;;4.90;;
9256;SDS011;4665;51.368;6.782;2022-12-24T09:37:07;14.90;;;4.80;;
9256;SDS011;4665;51.368;6.782;2022-12-24T09:39:32;20.30;;;5.37;;
9256;SDS011;4665;51.368;6.782;2022-12-24T09:45:05;22.97;;;4.90;;
9256;SDS011;4665;51.368;6.782;2022-12-24T09:47:40;18.87;;;5.53;;
9256;SDS011;4665;51.368;6.782;2022-12-24T09:52:50;16.30;;;4.23;;
9256;SDS011;4665;51.368;6.782;2022-12-24T09:57:51;14.93;;;4.83;;
9256;SDS011;4665;51.368;6.782;2022-12-24T10:00:20;18.50;;;4.90;;
9256;SDS011;4665;51.368;6.782;2022-12-24T10:02:48;20.63;;;4.87;;
9256;SDS011;4665;51.368;6.782;2022-12-24T10:05:14;17.47;;;4.93;;
9256;SDS011;4665;51.368;6.782;2022-12-24T10:08:25;20.63;;;5.43;;
9256;SDS011;4665;51.368;6.782;2022-12-24T10:10:52;20.60;;;4.63;;
9256;SDS011;4665;51.368;6.782;2022-12-24T10:13:29;16.80;;;4.90;;
9256;SDS011;4665;51.368;6.782;2022-12-24T10:22:07;14.00;;;4.27;;
9256;SDS011;4665;51.368;6.782;2022-12-24T10:24:43;19.17;;;5.00;;
9256;SDS011;4665;51.368;6.782;2022-12-24T10:27:13;23.10;;;5.40;;
9256;SDS011;4665;51.368;6.782;2022-12-24T10:29:41;19.27;;;4.83;;
9256;SDS011;4665;51.368;6.782;2022-12-24T10:32:20;22.63;;;5.27;;
9256;SDS011;4665;51.368;6.782;2022-12-24T10:37:28;17.47;;;4.97;;
9256;SDS011;4665;51.368;6.782;2022-12-24T10:39:54;17.93;;;4.80;;
9256;SDS011;4665;51.368;6.782;2022-12-24T10:42:22;24.20;;;5.73;;
9256;SDS011;4665;51.368;6.782;2022-12-24T10:44:55;19.77;;;5.37;;
9256;SDS011;4665;51.368;6.782;2022-12-24T10:47:24;17.17;;;4.93;;
9256;SDS011;4665;51.368;6.782;2022-12-24T10:50:02;23.83;;;5.37;;
9256;SDS011;4665;51.368;6.782;2022-12-24T10:52:34;20.57;;;5.30;;
9256;SDS011;4665;51.368;6.782;2022-12-24T10:55:05;22.17;;;5.70;;
9256;SDS011;4665;51.368;6.782;2022-12-24T10:57:35;19.37;;;4.73;;
9256;SDS011;4665;51.368;6.782;2022-12-24T11:00:01;24.03;;;5.27;;
9256;SDS011;4665;51.368;6.782;2022-12-24T11:04:59;20.80;;;5.53;;
9256;SDS011;4665;51.368;6.782;2022-12-24T11:07:26;23.50;;;5.57;;
9256;SDS011;4665;51.368;6.782;2022-12-24T11:09:59;17.17;;;4.50;;
9256;SDS011;4665;51.368;6.782;2022-12-24T11:12:30;20.97;;;5.40;;
9256;SDS011;4665;51.368;6.782;2022-12-24T11:17:32;22.43;;;5.17;;
9256;SDS011;4665;51.368;6.782;2022-12-24T11:20:01;22.83;;;5.83;;
9256;SDS011;4665;51.368;6.782;2022-12-24T11:22:28;21.77;;;5.23;;
9256;SDS011;4665;51.368;6.782;2022-12-24T11:24:57;21.27;;;5.60;;
9256;SDS011;4665;51.368;6.782;2022-12-24T11:30:56;18.23;;;4.83;;
9256;SDS011;4665;51.368;6.782;2022-12-24T11:33:24;16.37;;;4.63;;
9256;SDS011;4665;51.368;6.782;2022-12-24T11:35:52;23.67;;;5.83;;
9256;SDS011;4665;51.368;6.782;2022-12-24T11:38:29;24.70;;;5.30;;
9256;SDS011;4665;51.368;6.782;2022-12-24T11:41:03;18.93;;;5.10;;
9256;SDS011;4665;51.368;6.782;2022-12-24T11:43:39;20.53;;;5.30;;
9256;SDS011;4665;51.368;6.782;2022-12-24T11:46:12;15.87;;;4.70;;
9256;SDS011;4665;51.368;6.782;2022-12-24T11:48:40;17.40;;;4.93;;
9256;SDS011;4665;51.368;6.782;2022-12-24T11:51:16;16.30;;;4.33;;
9256;SDS011;4665;51.368;6.782;2022-12-24T11:59:08;17.17;;;5.33;;
9256;SDS011;4665;51.368;6.782;2022-12-24T12:04:20;19.50;;;5.63;;
9256;SDS011;4665;51.368;6.782;2022-12-24T12:09:17;20.30;;;5.77;;
9256;SDS011;4665;51.368;6.782;2022-12-24T12:11:47;18.33;;;4.73;;
9256;SDS011;4665;51.368;6.782;2022-12-24T12:14:21;19.33;;;5.20;;
9256;SDS011;4665;51.368;6.782;2022-12-24T12:16:57;16.93;;;5.50;;
9256;SDS011;4665;51.368;6.782;2022-12-24T12:19:34;19.93;;;5.87;;
9256;SDS011;4665;51.368;6.782;2022-12-24T12:22:17;16.30;;;5.10;;
9256;SDS011;4665;51.368;6.782;2022-12-24T12:24:52;23.23;;;5.53;;
9256;SDS011;4665;51.368;6.782;2022-12-24T12:27:36;19.43;;;5.03;;
9256;SDS011;4665;51.368;6.782;2022-12-24T12:30:15;19.60;;;4.90;;
9256;SDS011;4665;51.368;6.782;2022-12-24T12:35:42;16.83;;;4.63;;
9256;SDS011;4665;51.368;6.782;2022-12-24T12:38:12;15.73;;;4.43;;
9256;SDS011;4665;51.368;6.782;2022-12-24T12:43:53;18.47;;;4.67;;
9256;SDS011;4665;51.368;6.782;2022-12-24T12:46:24;20.33;;;4.13;;
9256;SDS011;4665;51.368;6.782;2022-12-24T12:54:05;16.33;;;5.00;;
9256;SDS011;4665;51.368;6.782;2022-12-24T12:56:55;17.87;;;4.87;;
9256;SDS011;4665;51.368;6.782;2022-12-24T12:59:35;18.63;;;4.83;;
9256;SDS011;4665;51.368;6.782;2022-12-24T13:21:13;23.47;;;5.30;;
9256;SDS011;4665;51.368;6.782;2022-12-24T13:23:42;16.17;;;4.47;;
9256;SDS011;4665;51.368;6.782;2022-12-24T13:26:09;20.77;;;4.93;;
9256;SDS011;4665;51.368;6.782;2022-12-24T13:28:37;12.20;;;4.67;;
9256;SDS011;4665;51.368;6.782;2022-12-24T13:33:56;14.47;;;4.67;;
9256;SDS011;4665;51.368;6.782;2022-12-24T13:36:23;16.47;;;4.53;;
9256;SDS011;4665;51.368;6.782;2022-12-24T13:49:33;16.00;;;4.60;;
9256;SDS011;4665;51.368;6.782;2022-12-24T13:57:24;16.03;;;5.27;;
9256;SDS011;4665;51.368;6.782;2022-12-24T14:05:44;14.40;;;3.90;;
9256;SDS011;4665;51.368;6.782;2022-12-24T14:16:04;12.33;;;4.53;;
9256;SDS011;4665;51.368;6.782;2022-12-24T14:18:37;13.73;;;3.93;;
9256;SDS011;4665;51.368;6.782;2022-12-24T14:21:06;10.83;;;3.50;;
9256;SDS011;4665;51.368;6.782;2022-12-24T14:26:17;14.63;;;4.20;;
9256;SDS011;4665;51.368;6.782;2022-12-24T14:28:48;15.80;;;4.10;;
9256;SDS011;4665;51.368;6.782;2022-12-24T14:31:19;14.30;;;4.57;;
9256;SDS011;4665;51.368;6.782;2022-12-24T14:33:45;9.47;;;4.00;;
9256;SDS011;4665;51.368;6.782;2022-12-24T14:36:12;6.20;;;3.23;;
9256;SDS011;4665;51.368;6.782;2022-12-24T14:38:40;12.00;;;4.10;;
9256;SDS011;4665;51.368;6.782;2022-12-24T14:43:59;16.33;;;4.50;;
9256;SDS011;4665;51.368;6.782;2022-12-24T14:46:31;10.73;;;3.77;;
9256;SDS011;4665;51.368;6.782;2022-12-24T14:51:40;13.80;;;4.23;;
9256;SDS011;4665;51.368;6.782;2022-12-24T14:54:31;13.50;;;4.70;;
9256;SDS011;4665;51.368;6.782;2022-12-24T14:59:58;14.70;;;5.10;;
9256;SDS011;4665;51.368;6.782;2022-12-24T15:05:18;10.93;;;3.97;;
9256;SDS011;4665;51.368;6.782;2022-12-24T15:07:51;9.80;;;3.53;;
9256;SDS011;4665;51.368;6.782;2022-12-24T15:10:43;8.83;;;3.47;;
9256;SDS011;4665;51.368;6.782;2022-12-24T15:13:19;14.67;;;4.10;;
9256;SDS011;4665;51.368;6.782;2022-12-24T15:15:54;11.63;;;4.50;;
9256;SDS011;4665;51.368;6.782;2022-12-24T15:18:21;12.10;;;4.10;;
9256;SDS011;4665;51.368;6.782;2022-12-24T15:20:50;8.83;;;3.60;;
9256;SDS011;4665;51.368;6.782;2022-12-24T15:23:19;10.70;;;4.10;;
9256;SDS011;4665;51.368;6.782;2022-12-24T15:25:49;9.90;;;3.87;;
9256;SDS011;4665;51.368;6.782;2022-12-24T15:28:18;12.90;;;4.60;;
9256;SDS011;4665;51.368;6.782;2022-12-24T15:30:47;11.63;;;4.07;;
9256;SDS011;4665;51.368;6.782;2022-12-24T15:33:13;9.40;;;3.17;;
9256;SDS011;4665;51.368;6.782;2022-12-24T15:38:14;8.87;;;3.50;;
9256;SDS011;4665;51.368;6.782;2022-12-24T15:40:56;9.83;;;4.03;;
9256;SDS011;4665;51.368;6.782;2022-12-24T15:43:23;11.20;;;3.43;;
9256;SDS011;4665;51.368;6.782;2022-12-24T15:45:49;12.30;;;3.73;;
9256;SDS011;4665;51.368;6.782;2022-12-24T15:48:17;10.73;;;3.60;;
9256;SDS011;4665;51.368;6.782;2022-12-24T15:50:54;8.77;;;3.23;;
9256;SDS011;4665;51.368;6.782;2022-12-24T15:53:26;10.13;;;3.50;;
9256;SDS011;4665;51.368;6.782;2022-12-24T15:56:05;13.07;;;3.80;;
9256;SDS011;4665;51.368;6.782;2022-12-24T15:58:40;9.73;;;3.87;;
9256;SDS011;4665;51.368;6.782;2022-12-24T16:03:34;16.20;;;3.97;;
9256;SDS011;4665;51.368;6.782;2022-12-24T16:06:02;15.60;;;4.13;;
9256;SDS011;4665;51.368;6.782;2022-12-24T16:08:33;12.37;;;4.10;;
9256;SDS011;4665;51.368;6.782;2022-12-24T16:11:13;12.90;;;4.23;;
9256;SDS011;4665;51.368;6.782;2022-12-24T16:16:15;12.13;;;3.90;;
9256;SDS011;4665;51.368;6.782;2022-12-24T16:18:53;8.23;;;3.87;;
9256;SDS011;4665;51.368;6.782;2022-12-24T16:21:29;11.37;;;3.90;;
9256;SDS011;4665;51.368;6.782;2022-12-24T16:24:17;13.27;;;4.57;;
9256;SDS011;4665;51.368;6.782;2022-12-24T16:26:46;13.03;;;5.13;;
9256;SDS011;4665;51.368;6.782;2022-12-24T16:29:12;16.00;;;4.53;;
9256;SDS011;4665;51.368;6.782;2022-12-24T16:31:43;10.10;;;4.60;;
9256;SDS011;4665;51.368;6.782;2022-12-24T16:34:11;9.57;;;4.60;;
9256;SDS011;4665;51.368;6.782;2022-12-24T16:36:41;11.57;;;4.57;;
9256;SDS011;4665;51.368;6.782;2022-12-24T16:39:50;10.90;;;4.97;;
9256;SDS011;4665;51.368;6.782;2022-12-24T16:41:59;8.97;;;5.00;;
9256;SDS011;4665;51.368;6.782;2022-12-24T16:44:44;11.27;;;5.63;;
9256;SDS011;4665;51.368;6.782;2022-12-24T16:47:12;10.47;;;5.13;;
9256;SDS011;4665;51.368;6.782;2022-12-24T16:49:39;10.90;;;5.83;;
9256;SDS011;4665;51.368;6.782;2022-12-24T16:52:06;11.87;;;5.77;;
9256;SDS011;4665;51.368;6.782;2022-12-24T16:54:38;14.10;;;6.97;;
9256;SDS011;4665;51.368;6.782;2022-12-24T16:57:04;11.67;;;6.37;;
9256;SDS011;4665;51.368;6.782;2022-12-24T16:59:29;10.87;;;7.20;;
9256;SDS011;4665;51.368;6.782;2022-12-24T17:01:56;24.40;;;8.83;;
9256;SDS011;4665;51.368;6.782;2022-12-24T17:04:22;19.60;;;8.43;;
9256;SDS011;4665;51.368;6.782;2022-12-24T17:06:47;16.23;;;8.10;;
9256;SDS011;4665;51.368;6.782;2022-12-24T17:09:14;18.20;;;8.00;;
9256;SDS011;4665;51.368;6.782;2022-12-24T17:11:40;20.37;;;7.43;;
9256;SDS011;4665;51.368;6.782;2022-12-24T17:14:05;15.17;;;7.47;;
9256;SDS011;4665;51.368;6.782;2022-12-24T17:16:31;14.23;;;7.20;;
9256;SDS011;4665;51.368;6.782;2022-12-24T17:18:56;15.90;;;7.10;;
9256;SDS011;4665;51.368;6.782;2022-12-24T17:21:22;13.47;;;6.77;;
9256;SDS011;4665;51.368;6.782;2022-12-24T17:23:48;15.10;;;7.33;;
9256;SDS011;4665;51.368;6.782;2022-12-24T17:26:15;15.87;;;7.27;;
9256;SDS011;4665;51.368;6.782;2022-12-24T17:28:40;12.53;;;6.20;;
9256;SDS011;4665;51.368;6.782;2022-12-24T17:31:07;14.43;;;6.80;;
9256;SDS011;4665;51.368;6.782;2022-12-24T17:33:34;16.93;;;7.03;;
9256;SDS011;4665;51.368;6.782;2022-12-24T17:35:59;9.97;;;6.07;;